sensor_id;sensor_type;location;lat;lon;timestamp;P1;durP1;ratioP1;P2;durP2;ratioP2
18142;SDS011;9197;50.930;3.140;2023-05-07T00:00:03;25.53;;;8.30;;
18142;SDS011;9197;50.930;3.140;2023-05-07T00:02:34;11.80;;;7.93;;
18142;SDS011;9197;50.930;3.140;2023-05-07T00:05:02;12.77;;;7.93;;
18142;SDS011;9197;50.930;3.140;2023-05-07T00:07:29;14.10;;;8.47;;
18142;SDS011;9197;50.930;3.140;2023-05-07T00:09:57;14.17;;;8.13;;
18142;SDS011;9197;50.930;3.140;2023-05-07T00:12:24;16.50;;;7.60;;
18142;SDS011;9197;50.930;3.140;2023-05-07T00:14:52;12.00;;;7.30;;
18142;SDS011;9197;50.930;3.140;2023-05-07T00:17:19;14.27;;;8.07;;
18142;SDS011;9197;50.930;3.140;2023-05-07T00:19:48;14.87;;;7.67;;
18142;SDS011;9197;50.930;3.140;2023-05-07T00:22:15;13.73;;;7.93;;
18142;SDS011;9197;50.930;3.140;2023-05-07T00:24:42;11.33;;;7.93;;
18142;SDS011;9197;50.930;3.140;2023-05-07T00:27:10;15.80;;;7.50;;
18142;SDS011;9197;50.930;3.140;2023-05-07T00:29:37;13.97;;;6.77;;
18142;SDS011;9197;50.930;3.140;2023-05-07T00:32:04;11.93;;;7.43;;
18142;SDS011;9197;50.930;3.140;2023-05-07T00:34:32;13.40;;;7.17;;
18142;SDS011;9197;50.930;3.140;2023-05-07T00:37:00;18.60;;;8.13;;
18142;SDS011;9197;50.930;3.140;2023-05-07T00:39:28;15.03;;;7.93;;
18142;SDS011;9197;50.930;3.140;2023-05-07T00:41:55;15.00;;;7.47;;
18142;SDS011;9197;50.930;3.140;2023-05-07T00:44:22;14.97;;;7.50;;
18142;SDS011;9197;50.930;3.140;2023-05-07T00:46:50;10.53;;;7.90;;
18142;SDS011;9197;50.930;3.140;2023-05-07T00:49:17;11.17;;;7.93;;
18142;SDS011;9197;50.930;3.140;2023-05-07T00:51:45;13.97;;;7.83;;
18142;SDS011;9197;50.930;3.140;2023-05-07T00:54:13;13.63;;;8.07;;
18142;SDS011;9197;50.930;3.140;2023-05-07T00:56:41;11.23;;;8.10;;
18142;SDS011;9197;50.930;3.140;2023-05-07T00:59:08;13.63;;;8.70;;
18142;SDS011;9197;50.930;3.140;2023-05-07T01:01:36;16.87;;;8.27;;
18142;SDS011;9197;50.930;3.140;2023-05-07T01:04:03;9.73;;;7.80;;
18142;SDS011;9197;50.930;3.140;2023-05-07T01:06:30;14.33;;;8.50;;
18142;SDS011;9197;50.930;3.140;2023-05-07T01:08:59;15.13;;;8.03;;
18142;SDS011;9197;50.930;3.140;2023-05-07T01:11:28;16.60;;;7.37;;
18142;SDS011;9197;50.930;3.140;2023-05-07T01:13:55;11.60;;;7.17;;
18142;SDS011;9197;50.930;3.140;2023-05-07T01:16:24;11.63;;;7.63;;
18142;SDS011;9197;50.930;3.140;2023-05-07T01:18:52;14.07;;;7.73;;
18142;SDS011;9197;50.930;3.140;2023-05-07T01:21:19;18.17;;;8.37;;
18142;SDS011;9197;50.930;3.140;2023-05-07T01:23:50;16.10;;;8.70;;
18142;SDS011;9197;50.930;3.140;2023-05-07T01:26:17;15.13;;;8.70;;
18142;SDS011;9197;50.930;3.140;2023-05-07T01:28:45;15.60;;;8.73;;
18142;SDS011;9197;50.930;3.140;2023-05-07T01:31:13;14.17;;;8.20;;
18142;SDS011;9197;50.930;3.140;2023-05-07T01:33:41;11.27;;;8.23;;
18142;SDS011;9197;50.930;3.140;2023-05-07T01:36:08;10.30;;;7.40;;
18142;SDS011;9197;50.930;3.140;2023-05-07T01:38:36;11.27;;;7.67;;
18142;SDS011;9197;50.930;3.140;2023-05-07T01:41:06;14.03;;;8.97;;
18142;SDS011;9197;50.930;3.140;2023-05-07T01:43:33;15.77;;;8.43;;
18142;SDS011;9197;50.930;3.140;2023-05-07T01:46:01;12.10;;;8.47;;
18142;SDS011;9197;50.930;3.140;2023-05-07T01:48:28;15.50;;;8.37;;
18142;SDS011;9197;50.930;3.140;2023-05-07T01:50:56;12.20;;;7.97;;
18142;SDS011;9197;50.930;3.140;2023-05-07T01:53:23;11.73;;;8.60;;
18142;SDS011;9197;50.930;3.140;2023-05-07T01:55:51;18.10;;;8.43;;
18142;SDS011;9197;50.930;3.140;2023-05-07T01:58:19;14.10;;;7.83;;
18142;SDS011;9197;50.930;3.140;2023-05-07T02:00:47;19.03;;;9.17;;
18142;SDS011;9197;50.930;3.140;2023-05-07T02:03:14;15.53;;;7.60;;
18142;SDS011;9197;50.930;3.140;2023-05-07T02:05:42;13.30;;;7.40;;
18142;SDS011;9197;50.930;3.140;2023-05-07T02:08:09;14.50;;;7.80;;
18142;SDS011;9197;50.930;3.140;2023-05-07T02:10:36;12.83;;;7.90;;
18142;SDS011;9197;50.930;3.140;2023-05-07T02:13:04;13.17;;;7.80;;
18142;SDS011;9197;50.930;3.140;2023-05-07T02:15:32;11.23;;;7.80;;
18142;SDS011;9197;50.930;3.140;2023-05-07T02:18:00;13.47;;;8.57;;
18142;SDS011;9197;50.930;3.140;2023-05-07T02:20:28;12.13;;;7.67;;
18142;SDS011;9197;50.930;3.140;2023-05-07T02:22:55;19.63;;;8.53;;
18142;SDS011;9197;50.930;3.140;2023-05-07T02:25:23;12.70;;;8.63;;
18142;SDS011;9197;50.930;3.140;2023-05-07T02:27:50;14.27;;;8.30;;
18142;SDS011;9197;50.930;3.140;2023-05-07T02:30:18;12.47;;;7.90;;
18142;SDS011;9197;50.930;3.140;2023-05-07T02:32:47;9.90;;;8.03;;
18142;SDS011;9197;50.930;3.140;2023-05-07T02:35:15;15.80;;;8.33;;
18142;SDS011;9197;50.930;3.140;2023-05-07T02:37:42;11.37;;;8.53;;
18142;SDS011;9197;50.930;3.140;2023-05-07T02:40:10;12.10;;;8.07;;
18142;SDS011;9197;50.930;3.140;2023-05-07T02:42:38;16.40;;;9.53;;
18142;SDS011;9197;50.930;3.140;2023-05-07T02:45:06;17.63;;;9.27;;
18142;SDS011;9197;50.930;3.140;2023-05-07T02:47:33;13.20;;;9.10;;
18142;SDS011;9197;50.930;3.140;2023-05-07T02:50:02;16.60;;;9.97;;
18142;SDS011;9197;50.930;3.140;2023-05-07T02:52:30;10.17;;;8.57;;
18142;SDS011;9197;50.930;3.140;2023-05-07T02:54:57;9.50;;;8.33;;
18142;SDS011;9197;50.930;3.140;2023-05-07T02:57:24;13.00;;;9.83;;
18142;SDS011;9197;50.930;3.140;2023-05-07T02:59:52;16.90;;;9.43;;
18142;SDS011;9197;50.930;3.140;2023-05-07T03:02:19;12.63;;;9.07;;
18142;SDS011;9197;50.930;3.140;2023-05-07T03:04:46;13.07;;;8.43;;
18142;SDS011;9197;50.930;3.140;2023-05-07T03:07:15;12.40;;;9.00;;
18142;SDS011;9197;50.930;3.140;2023-05-07T03:09:42;18.53;;;10.10;;
18142;SDS011;9197;50.930;3.140;2023-05-07T03:12:10;15.63;;;10.40;;
18142;SDS011;9197;50.930;3.140;2023-05-07T03:14:37;15.43;;;10.03;;
18142;SDS011;9197;50.930;3.140;2023-05-07T03:17:05;17.47;;;11.37;;
18142;SDS011;9197;50.930;3.140;2023-05-07T03:19:32;15.77;;;10.60;;
18142;SDS011;9197;50.930;3.140;2023-05-07T03:21:59;11.70;;;10.43;;
18142;SDS011;9197;50.930;3.140;2023-05-07T03:24:28;17.47;;;10.77;;
18142;SDS011;9197;50.930;3.140;2023-05-07T03:26:56;16.20;;;9.93;;
18142;SDS011;9197;50.930;3.140;2023-05-07T03:29:23;20.17;;;10.77;;
18142;SDS011;9197;50.930;3.140;2023-05-07T03:31:51;17.30;;;10.17;;
18142;SDS011;9197;50.930;3.140;2023-05-07T03:34:18;12.50;;;9.40;;
18142;SDS011;9197;50.930;3.140;2023-05-07T03:36:47;12.40;;;10.60;;
18142;SDS011;9197;50.930;3.140;2023-05-07T03:39:14;21.97;;;10.43;;
18142;SDS011;9197;50.930;3.140;2023-05-07T03:41:43;17.07;;;11.03;;
18142;SDS011;9197;50.930;3.140;2023-05-07T03:44:10;17.13;;;11.23;;
18142;SDS011;9197;50.930;3.140;2023-05-07T03:46:38;14.73;;;10.57;;
18142;SDS011;9197;50.930;3.140;2023-05-07T03:49:05;20.47;;;11.50;;
18142;SDS011;9197;50.930;3.140;2023-05-07T03:51:33;18.13;;;11.80;;
18142;SDS011;9197;50.930;3.140;2023-05-07T03:54:01;18.13;;;12.43;;
18142;SDS011;9197;50.930;3.140;2023-05-07T03:56:28;14.13;;;11.03;;
18142;SDS011;9197;50.930;3.140;2023-05-07T03:58:57;14.37;;;10.70;;
18142;SDS011;9197;50.930;3.140;2023-05-07T04:01:24;19.27;;;12.07;;
18142;SDS011;9197;50.930;3.140;2023-05-07T04:03:52;17.97;;;11.43;;
18142;SDS011;9197;50.930;3.140;2023-05-07T04:06:19;20.50;;;12.57;;
18142;SDS011;9197;50.930;3.140;2023-05-07T04:08:47;15.30;;;11.20;;
18142;SDS011;9197;50.930;3.140;2023-05-07T04:11:14;18.60;;;11.90;;
18142;SDS011;9197;50.930;3.140;2023-05-07T04:13:41;21.10;;;11.80;;
18142;SDS011;9197;50.930;3.140;2023-05-07T04:16:10;16.17;;;11.83;;
18142;SDS011;9197;50.930;3.140;2023-05-07T04:18:38;15.90;;;12.27;;
18142;SDS011;9197;50.930;3.140;2023-05-07T04:21:05;18.77;;;12.17;;
18142;SDS011;9197;50.930;3.140;2023-05-07T04:23:32;18.53;;;13.00;;
18142;SDS011;9197;50.930;3.140;2023-05-07T04:26:00;16.63;;;13.43;;
18142;SDS011;9197;50.930;3.140;2023-05-07T04:28:28;13.70;;;12.23;;
18142;SDS011;9197;50.930;3.140;2023-05-07T04:30:55;21.13;;;13.60;;
18142;SDS011;9197;50.930;3.140;2023-05-07T04:33:24;18.23;;;11.73;;
18142;SDS011;9197;50.930;3.140;2023-05-07T04:35:51;20.00;;;12.43;;
18142;SDS011;9197;50.930;3.140;2023-05-07T04:38:19;17.77;;;12.37;;
18142;SDS011;9197;50.930;3.140;2023-05-07T04:40:48;20.03;;;13.03;;
18142;SDS011;9197;50.930;3.140;2023-05-07T04:43:16;22.07;;;13.13;;
18142;SDS011;9197;50.930;3.140;2023-05-07T04:45:43;18.83;;;14.23;;
18142;SDS011;9197;50.930;3.140;2023-05-07T04:48:10;20.13;;;13.27;;
18142;SDS011;9197;50.930;3.140;2023-05-07T04:50:41;18.13;;;12.53;;
18142;SDS011;9197;50.930;3.140;2023-05-07T04:53:08;18.20;;;12.10;;
18142;SDS011;9197;50.930;3.140;2023-05-07T04:55:35;16.43;;;12.67;;
18142;SDS011;9197;50.930;3.140;2023-05-07T04:58:02;21.47;;;12.20;;
18142;SDS011;9197;50.930;3.140;2023-05-07T05:00:30;18.17;;;12.43;;
18142;SDS011;9197;50.930;3.140;2023-05-07T05:02:58;17.53;;;12.57;;
18142;SDS011;9197;50.930;3.140;2023-05-07T05:05:25;19.50;;;12.67;;
18142;SDS011;9197;50.930;3.140;2023-05-07T05:07:54;14.47;;;11.97;;
18142;SDS011;9197;50.930;3.140;2023-05-07T05:10:22;19.47;;;12.70;;
18142;SDS011;9197;50.930;3.140;2023-05-07T05:12:49;16.33;;;12.07;;
18142;SDS011;9197;50.930;3.140;2023-05-07T05:15:17;17.27;;;11.37;;
18142;SDS011;9197;50.930;3.140;2023-05-07T05:17:44;13.87;;;12.40;;
18142;SDS011;9197;50.930;3.140;2023-05-07T05:20:11;15.33;;;12.93;;
18142;SDS011;9197;50.930;3.140;2023-05-07T05:22:39;19.47;;;13.57;;
18142;SDS011;9197;50.930;3.140;2023-05-07T05:25:08;16.67;;;12.60;;
18142;SDS011;9197;50.930;3.140;2023-05-07T05:27:35;13.93;;;12.40;;
18142;SDS011;9197;50.930;3.140;2023-05-07T05:30:03;20.00;;;12.87;;
18142;SDS011;9197;50.930;3.140;2023-05-07T05:32:30;19.57;;;12.80;;
18142;SDS011;9197;50.930;3.140;2023-05-07T05:34:58;19.87;;;14.87;;
18142;SDS011;9197;50.930;3.140;2023-05-07T05:37:25;17.53;;;13.60;;
18142;SDS011;9197;50.930;3.140;2023-05-07T05:39:52;21.07;;;13.73;;
18142;SDS011;9197;50.930;3.140;2023-05-07T05:42:22;20.83;;;14.63;;
18142;SDS011;9197;50.930;3.140;2023-05-07T05:44:49;18.20;;;14.03;;
18142;SDS011;9197;50.930;3.140;2023-05-07T05:47:18;21.60;;;15.17;;
18142;SDS011;9197;50.930;3.140;2023-05-07T05:49:45;23.97;;;16.63;;
18142;SDS011;9197;50.930;3.140;2023-05-07T05:52:13;19.87;;;15.83;;
18142;SDS011;9197;50.930;3.140;2023-05-07T05:54:41;18.77;;;15.80;;
18142;SDS011;9197;50.930;3.140;2023-05-07T05:57:09;23.93;;;16.37;;
18142;SDS011;9197;50.930;3.140;2023-05-07T05:59:38;29.80;;;17.10;;
18142;SDS011;9197;50.930;3.140;2023-05-07T06:02:05;22.73;;;16.20;;
18142;SDS011;9197;50.930;3.140;2023-05-07T06:04:33;23.13;;;16.60;;
18142;SDS011;9197;50.930;3.140;2023-05-07T06:07:00;23.20;;;17.07;;
18142;SDS011;9197;50.930;3.140;2023-05-07T06:09:27;25.73;;;16.60;;
18142;SDS011;9197;50.930;3.140;2023-05-07T06:11:55;18.30;;;16.33;;
18142;SDS011;9197;50.930;3.140;2023-05-07T06:14:22;21.70;;;17.20;;
18142;SDS011;9197;50.930;3.140;2023-05-07T06:16:51;31.90;;;18.67;;
18142;SDS011;9197;50.930;3.140;2023-05-07T06:19:18;26.57;;;18.50;;
18142;SDS011;9197;50.930;3.140;2023-05-07T06:21:48;28.33;;;19.00;;
18142;SDS011;9197;50.930;3.140;2023-05-07T06:24:16;22.77;;;17.70;;
18142;SDS011;9197;50.930;3.140;2023-05-07T06:26:43;30.53;;;18.97;;
18142;SDS011;9197;50.930;3.140;2023-05-07T06:29:11;28.73;;;19.97;;
18142;SDS011;9197;50.930;3.140;2023-05-07T06:31:38;25.17;;;18.57;;
18142;SDS011;9197;50.930;3.140;2023-05-07T06:34:07;30.57;;;19.30;;
18142;SDS011;9197;50.930;3.140;2023-05-07T06:36:35;25.23;;;16.93;;
18142;SDS011;9197;50.930;3.140;2023-05-07T06:39:02;26.10;;;17.57;;
18142;SDS011;9197;50.930;3.140;2023-05-07T06:41:29;25.67;;;18.13;;
18142;SDS011;9197;50.930;3.140;2023-05-07T06:43:57;34.60;;;17.33;;
18142;SDS011;9197;50.930;3.140;2023-05-07T06:46:24;25.83;;;17.37;;
18142;SDS011;9197;50.930;3.140;2023-05-07T06:48:51;25.97;;;17.73;;
18142;SDS011;9197;50.930;3.140;2023-05-07T06:51:20;20.70;;;16.57;;
18142;SDS011;9197;50.930;3.140;2023-05-07T06:53:48;24.50;;;17.47;;
18142;SDS011;9197;50.930;3.140;2023-05-07T06:56:15;25.57;;;16.27;;
18142;SDS011;9197;50.930;3.140;2023-05-07T06:58:42;21.50;;;16.63;;
18142;SDS011;9197;50.930;3.140;2023-05-07T07:01:10;26.03;;;17.00;;
18142;SDS011;9197;50.930;3.140;2023-05-07T07:03:37;27.63;;;17.33;;
18142;SDS011;9197;50.930;3.140;2023-05-07T07:06:05;29.07;;;19.47;;
18142;SDS011;9197;50.930;3.140;2023-05-07T07:08:33;22.37;;;18.33;;
18142;SDS011;9197;50.930;3.140;2023-05-07T07:11:03;24.50;;;17.77;;
18142;SDS011;9197;50.930;3.140;2023-05-07T07:13:31;22.27;;;17.40;;
18142;SDS011;9197;50.930;3.140;2023-05-07T07:15:58;25.90;;;17.90;;
18142;SDS011;9197;50.930;3.140;2023-05-07T07:18:25;23.00;;;16.87;;
18142;SDS011;9197;50.930;3.140;2023-05-07T07:20:53;25.20;;;17.73;;
18142;SDS011;9197;50.930;3.140;2023-05-07T07:23:20;24.77;;;19.10;;
18142;SDS011;9197;50.930;3.140;2023-05-07T07:25:49;29.20;;;18.23;;
18142;SDS011;9197;50.930;3.140;2023-05-07T07:28:17;23.57;;;17.17;;
18142;SDS011;9197;50.930;3.140;2023-05-07T07:30:44;22.07;;;17.97;;
18142;SDS011;9197;50.930;3.140;2023-05-07T07:33:11;24.53;;;18.00;;
18142;SDS011;9197;50.930;3.140;2023-05-07T07:35:39;23.60;;;18.10;;
18142;SDS011;9197;50.930;3.140;2023-05-07T07:38:07;23.47;;;16.57;;
18142;SDS011;9197;50.930;3.140;2023-05-07T07:40:34;22.07;;;17.33;;
18142;SDS011;9197;50.930;3.140;2023-05-07T07:43:03;26.30;;;16.50;;
18142;SDS011;9197;50.930;3.140;2023-05-07T07:45:31;26.47;;;17.20;;
18142;SDS011;9197;50.930;3.140;2023-05-07T07:47:58;23.50;;;17.33;;
18142;SDS011;9197;50.930;3.140;2023-05-07T07:50:26;20.33;;;16.87;;
18142;SDS011;9197;50.930;3.140;2023-05-07T07:52:53;19.83;;;16.33;;
18142;SDS011;9197;50.930;3.140;2023-05-07T07:55:20;22.03;;;16.40;;
18142;SDS011;9197;50.930;3.140;2023-05-07T07:57:48;20.37;;;16.43;;
18142;SDS011;9197;50.930;3.140;2023-05-07T08:00:17;23.63;;;17.77;;
18142;SDS011;9197;50.930;3.140;2023-05-07T08:02:44;19.50;;;17.37;;
18142;SDS011;9197;50.930;3.140;2023-05-07T08:05:12;22.67;;;18.50;;
18142;SDS011;9197;50.930;3.140;2023-05-07T08:07:40;21.93;;;16.73;;
18142;SDS011;9197;50.930;3.140;2023-05-07T08:10:08;25.87;;;17.30;;
18142;SDS011;9197;50.930;3.140;2023-05-07T08:12:36;22.13;;;15.37;;
18142;SDS011;9197;50.930;3.140;2023-05-07T08:15:03;23.27;;;16.43;;
18142;SDS011;9197;50.930;3.140;2023-05-07T08:17:32;31.93;;;17.30;;
18142;SDS011;9197;50.930;3.140;2023-05-07T08:20:00;22.77;;;17.83;;
18142;SDS011;9197;50.930;3.140;2023-05-07T08:22:27;22.67;;;19.77;;
18142;SDS011;9197;50.930;3.140;2023-05-07T08:24:55;23.43;;;18.77;;
18142;SDS011;9197;50.930;3.140;2023-05-07T08:27:22;22.43;;;18.17;;
18142;SDS011;9197;50.930;3.140;2023-05-07T08:29:50;20.37;;;17.93;;
18142;SDS011;9197;50.930;3.140;2023-05-07T08:32:17;19.87;;;14.60;;
18142;SDS011;9197;50.930;3.140;2023-05-07T08:34:46;18.27;;;15.00;;
18142;SDS011;9197;50.930;3.140;2023-05-07T08:37:13;14.80;;;13.13;;
18142;SDS011;9197;50.930;3.140;2023-05-07T08:39:40;19.77;;;15.07;;
18142;SDS011;9197;50.930;3.140;2023-05-07T08:42:08;19.87;;;15.10;;
18142;SDS011;9197;50.930;3.140;2023-05-07T08:44:36;21.20;;;14.47;;
18142;SDS011;9197;50.930;3.140;2023-05-07T08:47:06;18.90;;;15.00;;
18142;SDS011;9197;50.930;3.140;2023-05-07T08:49:34;23.30;;;15.10;;
18142;SDS011;9197;50.930;3.140;2023-05-07T08:52:02;21.80;;;14.00;;
18142;SDS011;9197;50.930;3.140;2023-05-07T08:54:30;18.03;;;12.77;;
18142;SDS011;9197;50.930;3.140;2023-05-07T08:56:58;16.40;;;13.23;;
18142;SDS011;9197;50.930;3.140;2023-05-07T08:59:26;16.70;;;12.10;;
18142;SDS011;9197;50.930;3.140;2023-05-07T09:01:53;18.17;;;12.13;;
18142;SDS011;9197;50.930;3.140;2023-05-07T09:04:23;17.90;;;13.13;;
18142;SDS011;9197;50.930;3.140;2023-05-07T09:06:51;18.70;;;14.20;;
18142;SDS011;9197;50.930;3.140;2023-05-07T09:09:21;17.70;;;14.73;;
18142;SDS011;9197;50.930;3.140;2023-05-07T09:11:48;22.23;;;17.33;;
18142;SDS011;9197;50.930;3.140;2023-05-07T09:14:24;23.50;;;16.03;;
18142;SDS011;9197;50.930;3.140;2023-05-07T09:16:52;19.73;;;16.83;;
18142;SDS011;9197;50.930;3.140;2023-05-07T09:19:22;22.60;;;18.07;;
18142;SDS011;9197;50.930;3.140;2023-05-07T09:21:49;17.90;;;16.00;;
18142;SDS011;9197;50.930;3.140;2023-05-07T09:24:17;18.93;;;16.10;;
18142;SDS011;9197;50.930;3.140;2023-05-07T09:26:45;19.13;;;14.60;;
18142;SDS011;9197;50.930;3.140;2023-05-07T09:29:13;14.63;;;13.17;;
18142;SDS011;9197;50.930;3.140;2023-05-07T09:31:43;14.17;;;12.40;;
18142;SDS011;9197;50.930;3.140;2023-05-07T09:34:10;13.73;;;12.20;;
18142;SDS011;9197;50.930;3.140;2023-05-07T09:36:38;15.50;;;11.97;;
18142;SDS011;9197;50.930;3.140;2023-05-07T09:39:05;19.73;;;15.67;;
18142;SDS011;9197;50.930;3.140;2023-05-07T09:41:33;15.73;;;13.93;;
18142;SDS011;9197;50.930;3.140;2023-05-07T09:44:11;19.13;;;11.50;;
18142;SDS011;9197;50.930;3.140;2023-05-07T09:46:39;16.37;;;10.63;;
18142;SDS011;9197;50.930;3.140;2023-05-07T09:49:10;14.10;;;10.53;;
18142;SDS011;9197;50.930;3.140;2023-05-07T09:51:41;11.83;;;10.13;;
18142;SDS011;9197;50.930;3.140;2023-05-07T09:54:10;11.27;;;9.73;;
18142;SDS011;9197;50.930;3.140;2023-05-07T09:56:37;12.37;;;10.20;;
18142;SDS011;9197;50.930;3.140;2023-05-07T09:59:06;11.87;;;10.60;;
18142;SDS011;9197;50.930;3.140;2023-05-07T10:01:36;19.10;;;13.27;;
18142;SDS011;9197;50.930;3.140;2023-05-07T10:04:04;20.63;;;14.43;;
18142;SDS011;9197;50.930;3.140;2023-05-07T10:06:33;15.90;;;13.83;;
18142;SDS011;9197;50.930;3.140;2023-05-07T10:09:01;21.47;;;15.87;;
18142;SDS011;9197;50.930;3.140;2023-05-07T10:11:30;19.57;;;13.47;;
18142;SDS011;9197;50.930;3.140;2023-05-07T10:13:59;18.93;;;16.77;;
18142;SDS011;9197;50.930;3.140;2023-05-07T10:16:27;17.63;;;15.67;;
18142;SDS011;9197;50.930;3.140;2023-05-07T10:18:58;11.10;;;7.00;;
18142;SDS011;9197;50.930;3.140;2023-05-07T10:21:26;13.53;;;8.23;;
18142;SDS011;9197;50.930;3.140;2023-05-07T10:23:56;15.93;;;11.90;;
18142;SDS011;9197;50.930;3.140;2023-05-07T10:26:25;16.77;;;14.43;;
18142;SDS011;9197;50.930;3.140;2023-05-07T10:28:54;18.40;;;14.63;;
18142;SDS011;9197;50.930;3.140;2023-05-07T10:31:31;19.73;;;14.20;;
18142;SDS011;9197;50.930;3.140;2023-05-07T10:34:04;16.97;;;15.00;;
18142;SDS011;9197;50.930;3.140;2023-05-07T10:36:34;19.73;;;13.97;;
18142;SDS011;9197;50.930;3.140;2023-05-07T10:39:01;13.77;;;11.07;;
18142;SDS011;9197;50.930;3.140;2023-05-07T10:41:29;11.80;;;10.60;;
18142;SDS011;9197;50.930;3.140;2023-05-07T10:43:56;15.50;;;12.33;;
18142;SDS011;9197;50.930;3.140;2023-05-07T10:46:26;14.33;;;12.80;;
18142;SDS011;9197;50.930;3.140;2023-05-07T10:49:07;18.17;;;10.60;;
18142;SDS011;9197;50.930;3.140;2023-05-07T10:51:36;17.17;;;12.27;;
18142;SDS011;9197;50.930;3.140;2023-05-07T10:54:21;14.57;;;11.20;;
18142;SDS011;9197;50.930;3.140;2023-05-07T10:56:49;15.23;;;11.63;;
18142;SDS011;9197;50.930;3.140;2023-05-07T10:59:30;16.90;;;11.83;;
18142;SDS011;9197;50.930;3.140;2023-05-07T11:01:59;13.60;;;11.70;;
18142;SDS011;9197;50.930;3.140;2023-05-07T11:04:29;14.37;;;11.63;;
18142;SDS011;9197;50.930;3.140;2023-05-07T11:10:01;15.93;;;11.97;;
18142;SDS011;9197;50.930;3.140;2023-05-07T11:15:14;13.97;;;10.20;;
18142;SDS011;9197;50.930;3.140;2023-05-07T11:17:55;13.43;;;11.07;;
18142;SDS011;9197;50.930;3.140;2023-05-07T11:23:06;12.07;;;9.00;;
18142;SDS011;9197;50.930;3.140;2023-05-07T11:25:33;11.07;;;9.23;;
18142;SDS011;9197;50.930;3.140;2023-05-07T11:28:04;10.80;;;8.07;;
18142;SDS011;9197;50.930;3.140;2023-05-07T11:30:31;10.07;;;6.60;;
18142;SDS011;9197;50.930;3.140;2023-05-07T11:33:00;5.20;;;4.27;;
18142;SDS011;9197;50.930;3.140;2023-05-07T11:35:28;7.60;;;5.23;;
18142;SDS011;9197;50.930;3.140;2023-05-07T11:37:57;6.87;;;5.17;;
18142;SDS011;9197;50.930;3.140;2023-05-07T11:40:26;9.07;;;5.23;;
18142;SDS011;9197;50.930;3.140;2023-05-07T11:42:54;6.97;;;4.73;;
18142;SDS011;9197;50.930;3.140;2023-05-07T11:45:22;6.57;;;6.00;;
18142;SDS011;9197;50.930;3.140;2023-05-07T11:47:51;8.90;;;5.87;;
18142;SDS011;9197;50.930;3.140;2023-05-07T11:50:18;4.93;;;4.30;;
18142;SDS011;9197;50.930;3.140;2023-05-07T11:52:50;7.73;;;5.10;;
18142;SDS011;9197;50.930;3.140;2023-05-07T11:55:18;6.20;;;4.80;;
18142;SDS011;9197;50.930;3.140;2023-05-07T11:57:48;6.93;;;5.53;;
18142;SDS011;9197;50.930;3.140;2023-05-07T12:00:16;10.83;;;5.70;;
18142;SDS011;9197;50.930;3.140;2023-05-07T12:02:43;7.63;;;5.67;;
18142;SDS011;9197;50.930;3.140;2023-05-07T12:05:12;6.90;;;5.53;;
18142;SDS011;9197;50.930;3.140;2023-05-07T12:07:39;9.30;;;5.80;;
18142;SDS011;9197;50.930;3.140;2023-05-07T12:10:07;7.63;;;6.00;;
18142;SDS011;9197;50.930;3.140;2023-05-07T12:12:38;7.93;;;5.57;;
18142;SDS011;9197;50.930;3.140;2023-05-07T12:15:08;6.63;;;5.83;;
18142;SDS011;9197;50.930;3.140;2023-05-07T12:17:36;6.23;;;5.47;;
18142;SDS011;9197;50.930;3.140;2023-05-07T12:20:04;9.48;;;5.95;;
18142;SDS011;9197;50.930;3.140;2023-05-07T12:22:32;7.95;;;5.82;;
18142;SDS011;9197;50.930;3.140;2023-05-07T12:24:59;9.05;;;5.95;;
18142;SDS011;9197;50.930;3.140;2023-05-07T12:27:27;9.60;;;5.87;;
18142;SDS011;9197;50.930;3.140;2023-05-07T12:29:56;9.43;;;5.77;;
18142;SDS011;9197;50.930;3.140;2023-05-07T12:32:25;7.20;;;6.50;;
18142;SDS011;9197;50.930;3.140;2023-05-07T12:34:53;9.47;;;6.57;;
18142;SDS011;9197;50.930;3.140;2023-05-07T12:37:22;8.40;;;6.38;;
18142;SDS011;9197;50.930;3.140;2023-05-07T12:40:02;9.30;;;6.90;;
18142;SDS011;9197;50.930;3.140;2023-05-07T12:42:32;11.90;;;6.63;;
18142;SDS011;9197;50.930;3.140;2023-05-07T12:44:59;6.33;;;5.10;;
18142;SDS011;9197;50.930;3.140;2023-05-07T12:47:29;7.00;;;6.30;;
18142;SDS011;9197;50.930;3.140;2023-05-07T12:49:57;9.73;;;5.53;;
18142;SDS011;9197;50.930;3.140;2023-05-07T12:52:24;10.00;;;6.27;;
18142;SDS011;9197;50.930;3.140;2023-05-07T12:54:52;10.33;;;8.07;;
18142;SDS011;9197;50.930;3.140;2023-05-07T12:57:19;12.03;;;6.97;;
18142;SDS011;9197;50.930;3.140;2023-05-07T12:59:47;9.97;;;8.60;;
18142;SDS011;9197;50.930;3.140;2023-05-07T13:02:14;10.97;;;7.33;;
18142;SDS011;9197;50.930;3.140;2023-05-07T13:04:43;14.90;;;8.90;;
18142;SDS011;9197;50.930;3.140;2023-05-07T13:07:10;14.60;;;10.47;;
18142;SDS011;9197;50.930;3.140;2023-05-07T13:09:37;10.30;;;7.97;;
18142;SDS011;9197;50.930;3.140;2023-05-07T13:12:05;8.47;;;6.13;;
18142;SDS011;9197;50.930;3.140;2023-05-07T13:14:33;7.80;;;6.47;;
18142;SDS011;9197;50.930;3.140;2023-05-07T13:17:00;8.13;;;7.33;;
18142;SDS011;9197;50.930;3.140;2023-05-07T13:19:27;11.70;;;6.87;;
18142;SDS011;9197;50.930;3.140;2023-05-07T13:21:56;8.83;;;7.13;;
18142;SDS011;9197;50.930;3.140;2023-05-07T13:24:23;11.37;;;6.57;;
18142;SDS011;9197;50.930;3.140;2023-05-07T13:26:51;9.67;;;6.50;;
18142;SDS011;9197;50.930;3.140;2023-05-07T13:29:18;13.47;;;7.00;;
18142;SDS011;9197;50.930;3.140;2023-05-07T13:31:46;7.07;;;6.38;;
18142;SDS011;9197;50.930;3.140;2023-05-07T13:34:13;6.53;;;5.93;;
18142;SDS011;9197;50.930;3.140;2023-05-07T13:36:40;8.13;;;6.50;;
18142;SDS011;9197;50.930;3.140;2023-05-07T13:39:09;8.05;;;6.85;;
18142;SDS011;9197;50.930;3.140;2023-05-07T13:41:37;8.23;;;6.90;;
18142;SDS011;9197;50.930;3.140;2023-05-07T13:44:04;9.65;;;7.75;;
18142;SDS011;9197;50.930;3.140;2023-05-07T13:46:31;8.65;;;7.70;;
18142;SDS011;9197;50.930;3.140;2023-05-07T13:48:59;9.80;;;7.82;;
18142;SDS011;9197;50.930;3.140;2023-05-07T13:51:26;9.93;;;7.13;;
18142;SDS011;9197;50.930;3.140;2023-05-07T13:53:53;11.35;;;7.00;;
18142;SDS011;9197;50.930;3.140;2023-05-07T13:56:22;8.45;;;7.10;;
18142;SDS011;9197;50.930;3.140;2023-05-07T13:58:50;7.57;;;6.88;;
18142;SDS011;9197;50.930;3.140;2023-05-07T14:01:17;8.27;;;6.40;;
18142;SDS011;9197;50.930;3.140;2023-05-07T14:03:44;12.00;;;6.47;;
18142;SDS011;9197;50.930;3.140;2023-05-07T14:06:11;7.43;;;6.15;;
18142;SDS011;9197;50.930;3.140;2023-05-07T14:08:39;11.27;;;7.30;;
18142;SDS011;9197;50.930;3.140;2023-05-07T14:11:06;7.18;;;6.43;;
18142;SDS011;9197;50.930;3.140;2023-05-07T14:13:35;7.82;;;7.00;;
18142;SDS011;9197;50.930;3.140;2023-05-07T14:16:03;9.82;;;7.03;;
18142;SDS011;9197;50.930;3.140;2023-05-07T14:18:31;8.93;;;7.22;;
18142;SDS011;9197;50.930;3.140;2023-05-07T14:21:00;12.45;;;6.82;;
18142;SDS011;9197;50.930;3.140;2023-05-07T14:23:27;9.80;;;7.15;;
18142;SDS011;9197;50.930;3.140;2023-05-07T14:25:55;8.65;;;6.75;;
18142;SDS011;9197;50.930;3.140;2023-05-07T14:28:22;9.13;;;7.85;;
18142;SDS011;9197;50.930;3.140;2023-05-07T14:30:51;9.25;;;7.22;;
18142;SDS011;9197;50.930;3.140;2023-05-07T14:33:19;9.18;;;7.78;;
18142;SDS011;9197;50.930;3.140;2023-05-07T14:35:46;8.48;;;6.57;;
18142;SDS011;9197;50.930;3.140;2023-05-07T14:38:15;6.82;;;6.03;;
18142;SDS011;9197;50.930;3.140;2023-05-07T14:40:42;7.72;;;6.45;;
18142;SDS011;9197;50.930;3.140;2023-05-07T14:43:09;7.20;;;5.20;;
18142;SDS011;9197;50.930;3.140;2023-05-07T14:45:37;9.02;;;6.15;;
18142;SDS011;9197;50.930;3.140;2023-05-07T14:48:06;6.57;;;5.20;;
18142;SDS011;9197;50.930;3.140;2023-05-07T14:50:34;6.78;;;4.13;;
18142;SDS011;9197;50.930;3.140;2023-05-07T14:53:01;6.15;;;4.55;;
18142;SDS011;9197;50.930;3.140;2023-05-07T14:55:29;5.72;;;4.50;;